createdAt,value
2022-09-22T00:01:32.248Z,3.70
2022-09-22T00:04:06.120Z,3.63
2022-09-22T00:06:37.013Z,4.47
2022-09-22T00:09:06.651Z,3.38
2022-09-22T00:11:37.512Z,3.70
2022-09-22T00:14:08.421Z,3.42
2022-09-22T00:16:39.503Z,3.08
2022-09-22T00:19:10.506Z,3.25
2022-09-22T00:21:38.480Z,2.90
2022-09-22T00:24:08.158Z,3.40
2022-09-22T00:26:38.043Z,2.95
2022-09-22T00:29:08.079Z,3.20
2022-09-22T00:31:37.523Z,2.90
2022-09-22T00:34:06.127Z,2.57
2022-09-22T00:36:35.750Z,2.97
2022-09-22T00:39:03.947Z,3.13
2022-09-22T00:41:34.121Z,2.55
2022-09-22T00:44:40.693Z,2.50
2022-09-22T00:47:32.440Z,3.03
2022-09-22T00:50:06.955Z,2.40
2022-09-22T00:52:41.911Z,2.20
2022-09-22T00:55:30.872Z,2.70
2022-09-22T00:58:00.962Z,2.72
2022-09-22T01:00:28.985Z,2.85
2022-09-22T01:03:00.500Z,2.65
2022-09-22T01:05:31.454Z,3.15
2022-09-22T01:07:59.719Z,3.58
2022-09-22T01:10:28.993Z,3.05
2022-09-22T01:13:16.128Z,3.20
2022-09-22T01:15:52.062Z,2.85
2022-09-22T01:18:27.017Z,3.00
2022-09-22T01:21:24.942Z,3.20
2022-09-22T01:24:23.871Z,2.83
2022-09-22T01:27:41.016Z,2.95
2022-09-22T01:30:28.615Z,2.70
2022-09-22T01:33:14.952Z,2.92
2022-09-22T01:35:53.520Z,2.78
2022-09-22T01:38:31.638Z,2.85
2022-09-22T01:41:04.258Z,2.70
2022-09-22T01:43:39.374Z,2.88
2022-09-22T01:46:14.812Z,2.50
2022-09-22T01:48:46.427Z,2.80
2022-09-22T01:51:19.594Z,2.65
2022-09-22T01:53:53.572Z,2.72
2022-09-22T01:56:22.984Z,2.83
2022-09-22T01:58:53.926Z,2.93
2022-09-22T02:01:26.610Z,2.80
2022-09-22T02:03:59.875Z,2.90
2022-09-22T02:06:33.125Z,2.78
2022-09-22T02:09:05.834Z,3.00
2022-09-22T02:11:34.379Z,2.80
2022-09-22T02:14:03.603Z,2.72
2022-09-22T02:16:33.890Z,3.33
2022-09-22T02:21:44.465Z,3.50
2022-09-22T02:24:28.909Z,3.13
2022-09-22T02:26:58.751Z,2.75
2022-09-22T02:29:31.350Z,3.22
2022-09-22T02:32:03.887Z,2.97
2022-09-22T02:34:32.502Z,3.08
2022-09-22T02:37:07.752Z,3.20
2022-09-22T02:39:43.326Z,3.10
2022-09-22T02:42:21.630Z,3.20
2022-09-22T02:44:57.673Z,3.10
2022-09-22T02:47:33.754Z,2.90
2022-09-22T02:50:03.841Z,3.10
2022-09-22T02:52:31.611Z,3.00
2022-09-22T02:54:59.475Z,3.40
2022-09-22T02:57:27.573Z,3.30
2022-09-22T02:59:55.395Z,3.10
2022-09-22T03:02:23.564Z,3.25
2022-09-22T03:04:53.924Z,3.65
2022-09-22T03:07:21.959Z,3.65
2022-09-22T03:09:50.102Z,3.53
2022-09-22T03:12:18.588Z,3.80
2022-09-22T03:14:46.556Z,3.35
2022-09-22T03:17:14.374Z,3.38
2022-09-22T03:19:42.464Z,3.83
2022-09-22T03:22:11.933Z,3.58
2022-09-22T03:24:39.807Z,3.13
2022-09-22T03:27:07.901Z,3.55
2022-09-22T03:29:35.740Z,3.58
2022-09-22T03:32:03.967Z,3.55
2022-09-22T03:34:31.984Z,3.90
2022-09-22T03:36:59.875Z,3.65
2022-09-22T03:39:29.433Z,4.00
2022-09-22T03:41:57.692Z,3.95
2022-09-22T03:44:27.612Z,3.42
2022-09-22T03:46:55.490Z,4.13
2022-09-22T03:49:23.481Z,4.03
2022-09-22T03:51:51.402Z,4.18
2022-09-22T03:54:19.458Z,3.92
2022-09-22T03:56:48.809Z,3.90
2022-09-22T03:59:17.527Z,4.97
2022-09-22T04:01:45.732Z,4.03
2022-09-22T04:04:13.752Z,4.00
2022-09-22T04:06:42.106Z,4.15
2022-09-22T04:09:10.147Z,3.70
2022-09-22T04:11:38.111Z,3.90
2022-09-22T04:14:07.510Z,3.75
2022-09-22T04:16:35.481Z,4.13
2022-09-22T04:19:05.063Z,4.22
2022-09-22T04:21:33.015Z,4.47
2022-09-22T04:24:01.055Z,5.18
2022-09-22T04:26:28.997Z,4.50
2022-09-22T04:28:56.894Z,4.35
2022-09-22T04:31:26.114Z,4.95
2022-09-22T04:33:54.138Z,4.53
2022-09-22T04:36:22.101Z,4.30
2022-09-22T04:38:50.015Z,4.57
2022-09-22T04:41:17.928Z,7.18
2022-09-22T04:43:45.815Z,5.30
2022-09-22T04:46:13.928Z,8.05
2022-09-22T04:48:43.139Z,6.70
2022-09-22T04:51:11.040Z,7.25
2022-09-22T04:53:38.898Z,7.22
2022-09-22T04:56:07.254Z,8.40
2022-09-22T04:58:35.131Z,9.32
2022-09-22T05:01:03.782Z,9.75
2022-09-22T05:03:32.029Z,10.68
2022-09-22T05:06:01.410Z,10.48
2022-09-22T05:08:29.338Z,12.27
2022-09-22T05:10:57.799Z,9.70
2022-09-22T05:13:25.905Z,10.27
2022-09-22T05:15:54.051Z,8.63
2022-09-22T05:18:22.127Z,9.48
2022-09-22T05:20:50.097Z,9.30
2022-09-22T05:23:19.516Z,8.88
2022-09-22T05:25:47.439Z,10.03
2022-09-22T05:28:15.469Z,9.55
2022-09-22T05:30:43.595Z,10.07
2022-09-22T05:33:11.625Z,10.82
2022-09-22T05:35:39.564Z,10.27
2022-09-22T05:38:07.476Z,10.82
2022-09-22T05:40:36.808Z,10.25
2022-09-22T05:43:04.836Z,10.00
2022-09-22T05:45:32.761Z,11.40
2022-09-22T05:48:00.747Z,11.88
2022-09-22T05:50:28.606Z,11.35
2022-09-22T05:53:04.905Z,10.48
2022-09-22T05:55:33.211Z,12.15
2022-09-22T05:58:03.323Z,11.40
2022-09-22T06:00:32.085Z,11.57
2022-09-22T06:03:00.139Z,10.63
2022-09-22T06:05:28.155Z,9.43
2022-09-22T06:08:00.865Z,10.27
2022-09-22T06:10:29.211Z,9.48
2022-09-22T06:13:00.545Z,11.00
2022-09-22T06:15:31.337Z,11.90
2022-09-22T06:17:59.371Z,10.48
2022-09-22T06:20:27.322Z,9.93
2022-09-22T06:22:56.601Z,9.93
2022-09-22T06:25:25.099Z,10.38
2022-09-22T06:28:02.025Z,9.40
2022-09-22T06:30:31.843Z,10.05
2022-09-22T06:33:00.015Z,9.60
2022-09-22T06:35:31.387Z,11.75
2022-09-22T06:37:59.998Z,12.93
2022-09-22T06:40:28.934Z,14.15
2022-09-22T06:43:10.513Z,14.20
2022-09-22T06:45:40.020Z,12.02
2022-09-22T06:48:10.446Z,12.23
2022-09-22T06:50:41.098Z,11.15
2022-09-22T06:53:12.428Z,12.68
2022-09-22T06:55:43.203Z,11.18
2022-09-22T06:58:11.559Z,12.98
2022-09-22T07:00:42.935Z,12.45
2022-09-22T07:03:17.753Z,12.10
2022-09-22T07:05:54.835Z,11.00
2022-09-22T07:08:23.183Z,11.32
2022-09-22T07:10:56.280Z,10.73
2022-09-22T07:13:24.403Z,13.68
2022-09-22T07:15:55.402Z,13.32
2022-09-22T07:18:23.352Z,11.30
2022-09-22T07:20:51.246Z,10.45
2022-09-22T07:23:21.262Z,9.70
2022-09-22T07:25:57.016Z,9.90
2022-09-22T07:28:25.906Z,10.55
2022-09-22T07:30:57.469Z,8.35
2022-09-22T07:33:25.517Z,8.57
2022-09-22T07:36:01.971Z,9.20
2022-09-22T07:38:36.302Z,8.75
2022-09-22T07:41:06.715Z,7.65
2022-09-22T07:43:35.252Z,8.32
2022-09-22T07:46:05.019Z,6.43
2022-09-22T07:48:42.933Z,5.90
2022-09-22T07:51:16.505Z,6.88
2022-09-22T07:53:46.072Z,6.18
2022-09-22T07:56:15.447Z,5.78
2022-09-22T07:58:45.945Z,5.17
2022-09-22T08:01:15.446Z,6.00
2022-09-22T08:03:44.177Z,5.40
2022-09-22T08:06:12.241Z,4.35
2022-09-22T08:08:42.147Z,4.47
2022-09-22T08:11:13.614Z,4.85
2022-09-22T08:13:42.602Z,4.28
2022-09-22T08:16:11.586Z,4.60
2022-09-22T08:18:41.320Z,4.93
2022-09-22T08:21:09.255Z,4.60
2022-09-22T08:23:38.114Z,4.00
2022-09-22T08:26:07.147Z,4.18
2022-09-22T08:28:36.193Z,4.35
2022-09-22T08:31:04.744Z,4.60
2022-09-22T08:33:32.724Z,4.22
2022-09-22T08:36:03.648Z,3.85
2022-09-22T08:38:34.061Z,3.83
2022-09-22T08:43:34.047Z,3.80
2022-09-22T08:46:05.723Z,3.67
2022-09-22T08:48:52.091Z,3.72
2022-09-22T08:51:46.259Z,3.97
2022-09-22T08:54:14.030Z,3.83
2022-09-22T08:56:45.739Z,3.92
2022-09-22T08:59:18.887Z,3.20
2022-09-22T09:02:14.619Z,2.92
2022-09-22T09:05:01.348Z,4.03
2022-09-22T09:07:43.212Z,3.40
2022-09-22T09:10:32.866Z,2.92
2022-09-22T09:13:13.054Z,2.95
2022-09-22T09:18:17.583Z,2.38
2022-09-22T09:23:19.302Z,2.22
2022-09-22T09:25:51.998Z,2.53
2022-09-22T09:28:27.857Z,2.45
2022-09-22T09:31:07.624Z,2.00
2022-09-22T09:33:43.933Z,2.92
2022-09-22T09:38:52.048Z,2.53
2022-09-22T09:41:24.178Z,2.13
2022-09-22T09:43:54.428Z,1.98
2022-09-22T09:46:34.981Z,2.40
2022-09-22T09:49:08.145Z,1.73
2022-09-22T09:51:39.664Z,2.00
2022-09-22T09:54:17.045Z,1.90
2022-09-22T09:57:06.262Z,2.00
2022-09-22T09:59:52.727Z,2.03
2022-09-22T10:02:23.853Z,1.88
2022-09-22T10:04:54.073Z,1.73
2022-09-22T10:07:24.615Z,1.45
2022-09-22T10:09:56.115Z,1.25
2022-09-22T10:12:27.531Z,1.38
2022-09-22T10:14:57.350Z,1.05
2022-09-22T10:17:29.557Z,1.65
2022-09-22T10:20:18.735Z,1.20
2022-09-22T10:22:46.687Z,1.40
2022-09-22T10:25:24.434Z,1.30
2022-09-22T10:28:04.097Z,1.20
2022-09-22T10:30:33.277Z,1.27
2022-09-22T10:33:14.436Z,1.20
2022-09-22T10:35:44.449Z,1.10
2022-09-22T10:38:20.971Z,1.10
2022-09-22T10:40:56.900Z,1.20
2022-09-22T10:43:40.922Z,1.08
2022-09-22T10:46:32.523Z,0.95
2022-09-22T10:49:10.401Z,1.05
2022-09-22T10:51:55.011Z,0.82
2022-09-22T10:54:43.561Z,0.90
2022-09-22T10:57:24.764Z,1.13
2022-09-22T11:00:15.152Z,1.10
2022-09-22T11:03:17.582Z,0.90
2022-09-22T11:06:13.548Z,0.98
2022-09-22T11:09:07.401Z,1.10
2022-09-22T11:12:01.168Z,1.08
2022-09-22T11:14:43.458Z,0.88
2022-09-22T11:17:29.083Z,1.10
2022-09-22T11:20:23.224Z,1.05
2022-09-22T11:23:11.633Z,0.80
2022-09-22T11:25:51.731Z,0.90
2022-09-22T11:28:34.835Z,0.63
2022-09-22T11:31:04.587Z,0.80
2022-09-22T11:33:50.613Z,0.60
2022-09-22T11:36:39.615Z,0.80
2022-09-22T11:39:19.864Z,1.00
2022-09-22T11:44:33.817Z,1.40
2022-09-22T11:47:31.534Z,1.00
2022-09-22T11:50:36.540Z,0.80
2022-09-22T11:53:34.213Z,0.90
2022-09-22T11:56:16.655Z,0.95
2022-09-22T11:58:46.040Z,0.93
2022-09-22T12:01:19.334Z,0.80
2022-09-22T12:03:54.526Z,1.00
2022-09-22T12:06:27.032Z,1.23
2022-09-22T12:09:01.191Z,0.90
2022-09-22T12:11:30.676Z,0.82
2022-09-22T12:14:00.279Z,1.20
2022-09-22T12:16:41.822Z,1.05
2022-09-22T12:19:24.455Z,0.98
2022-09-22T12:21:58.902Z,1.00
2022-09-22T12:24:27.034Z,0.80
2022-09-22T12:26:55.260Z,0.90
2022-09-22T12:29:27.572Z,0.88
2022-09-22T12:31:57.857Z,0.90
2022-09-22T12:36:59.448Z,0.90
2022-09-22T12:39:31.115Z,0.90
2022-09-22T12:42:01.200Z,1.00
2022-09-22T12:44:33.396Z,0.70
2022-09-22T12:47:05.453Z,0.80
2022-09-22T12:49:35.119Z,0.73
2022-09-22T12:52:03.335Z,1.00
2022-09-22T12:54:40.446Z,0.90
2022-09-22T12:57:29.244Z,0.90
2022-09-22T13:00:20.654Z,0.75
2022-09-22T13:02:49.888Z,0.70
2022-09-22T13:05:46.541Z,0.60
2022-09-22T13:08:23.901Z,1.02
2022-09-22T13:11:01.717Z,0.93
2022-09-22T13:13:46.764Z,0.82
2022-09-22T13:16:35.594Z,0.90
2022-09-22T13:19:05.713Z,1.00
2022-09-22T13:21:35.672Z,0.70
2022-09-22T13:24:07.499Z,0.93
2022-09-22T13:26:37.516Z,0.82
2022-09-22T13:29:11.600Z,0.90
2022-09-22T13:31:42.876Z,0.90
2022-09-22T13:34:22.335Z,0.85
2022-09-22T13:36:54.278Z,0.70
2022-09-22T13:39:24.994Z,0.85
2022-09-22T13:41:57.017Z,0.80
2022-09-22T13:44:30.060Z,0.90
2022-09-22T13:47:00.035Z,0.90
2022-09-22T13:49:36.983Z,0.77
2022-09-22T13:52:09.867Z,1.02
2022-09-22T13:54:39.477Z,0.85
2022-09-22T13:57:19.352Z,0.50
2022-09-22T13:59:48.074Z,1.00
2022-09-22T14:02:22.104Z,1.15
2022-09-22T14:04:52.436Z,0.52
2022-09-22T14:09:51.715Z,1.00
2022-09-22T14:12:21.179Z,0.80
2022-09-22T14:14:49.151Z,1.00
2022-09-22T14:17:21.881Z,1.00
2022-09-22T14:19:57.524Z,0.90
2022-09-22T14:22:28.781Z,1.00
2022-09-22T14:24:58.869Z,0.85
2022-09-22T14:27:32.289Z,1.10
2022-09-22T14:30:00.985Z,1.70
2022-09-22T14:32:36.155Z,1.60
2022-09-22T14:35:07.427Z,1.65
2022-09-22T14:37:39.400Z,1.00
2022-09-22T14:40:15.634Z,0.88
2022-09-22T14:42:43.835Z,1.45
2022-09-22T14:45:21.167Z,1.40
2022-09-22T14:48:19.335Z,0.98
2022-09-22T14:50:49.865Z,0.70
2022-09-22T14:53:22.957Z,1.02
2022-09-22T14:55:54.652Z,0.90
2022-09-22T14:58:25.350Z,0.90
2022-09-22T15:01:14.726Z,1.00
2022-09-22T15:03:46.591Z,0.90
2022-09-22T15:06:16.288Z,0.90
2022-09-22T15:08:51.227Z,0.85
2022-09-22T15:11:19.918Z,1.45
2022-09-22T15:13:50.884Z,0.82
2022-09-22T15:16:43.614Z,0.80
2022-09-22T15:19:13.207Z,1.20
2022-09-22T15:21:47.994Z,1.05
2022-09-22T15:24:26.821Z,0.90
2022-09-22T15:26:57.689Z,1.00
2022-09-22T15:29:26.341Z,0.88
2022-09-22T15:31:55.979Z,1.02
2022-09-22T15:34:23.989Z,0.80
2022-09-22T15:36:55.943Z,1.10
2022-09-22T15:39:26.057Z,0.70
2022-09-22T15:41:54.988Z,0.80
2022-09-22T15:44:22.919Z,0.52
2022-09-22T15:46:54.186Z,1.10
2022-09-22T15:49:26.282Z,0.85
2022-09-22T15:51:56.224Z,0.90
2022-09-22T15:54:26.906Z,0.68
2022-09-22T15:56:57.013Z,0.70
2022-09-22T15:59:28.283Z,0.90
2022-09-22T16:01:57.420Z,1.15
2022-09-22T16:04:33.054Z,2.00
2022-09-22T16:07:04.132Z,2.17
2022-09-22T16:09:33.792Z,2.42
2022-09-22T16:12:03.415Z,1.35
2022-09-22T16:14:31.341Z,1.10
2022-09-22T16:16:59.343Z,1.00
2022-09-22T16:19:28.368Z,1.20
2022-09-22T16:21:56.280Z,1.42
2022-09-22T16:24:26.425Z,1.20
2022-09-22T16:26:56.560Z,1.80
2022-09-22T16:29:25.083Z,1.90
2022-09-22T16:31:53.229Z,2.40
2022-09-22T16:34:21.188Z,3.45
2022-09-22T16:36:49.192Z,2.67
2022-09-22T16:39:17.282Z,2.88
2022-09-22T16:41:46.577Z,3.65
2022-09-22T16:44:16.849Z,3.65
2022-09-22T16:49:16.260Z,3.53
2022-09-22T16:51:46.855Z,2.60
2022-09-22T16:54:14.982Z,2.03
2022-09-22T16:56:44.446Z,1.65
2022-09-22T16:59:15.234Z,1.30
2022-09-22T17:01:44.871Z,1.10
2022-09-22T17:04:15.818Z,1.55
2022-09-22T17:06:44.508Z,1.45
2022-09-22T17:09:14.063Z,1.40
2022-09-22T17:11:43.831Z,2.10
2022-09-22T17:14:13.625Z,1.77
2022-09-22T17:16:42.881Z,2.67
2022-09-22T17:19:18.325Z,1.95
2022-09-22T17:21:47.964Z,1.98
2022-09-22T17:24:16.564Z,1.58
2022-09-22T17:26:47.864Z,1.95
2022-09-22T17:29:17.017Z,2.33
2022-09-22T17:31:47.240Z,1.92
2022-09-22T17:36:45.615Z,1.83
2022-09-22T17:39:14.099Z,2.10
2022-09-22T17:41:45.493Z,2.33
2022-09-22T17:44:14.769Z,2.90
2022-09-22T17:47:02.700Z,2.38
2022-09-22T17:49:49.393Z,2.67
2022-09-22T17:52:35.537Z,2.70
2022-09-22T17:55:08.076Z,2.65
2022-09-22T17:57:37.887Z,2.85
2022-09-22T18:00:08.420Z,2.20
2022-09-22T18:02:38.860Z,3.42
2022-09-22T18:05:11.303Z,3.42
2022-09-22T18:07:40.495Z,3.58
2022-09-22T18:10:10.479Z,4.25
2022-09-22T18:12:38.973Z,4.53
2022-09-22T18:15:08.358Z,4.30
2022-09-22T18:17:41.320Z,4.93
2022-09-22T18:20:12.531Z,4.82
2022-09-22T18:22:41.378Z,5.32
2022-09-22T18:25:10.837Z,4.28
2022-09-22T18:27:40.237Z,4.07
2022-09-22T18:30:11.337Z,5.53
2022-09-22T18:32:41.336Z,4.45
2022-09-22T18:35:11.231Z,4.10
2022-09-22T18:37:39.324Z,4.28
2022-09-22T18:40:08.737Z,4.40
2022-09-22T18:42:37.110Z,4.60
2022-09-22T18:45:05.592Z,4.90
2022-09-22T18:47:39.677Z,4.47
2022-09-22T18:50:08.683Z,4.25
2022-09-22T18:52:42.620Z,3.70
2022-09-22T18:55:18.801Z,3.53
2022-09-22T18:57:48.421Z,5.03
2022-09-22T19:00:21.172Z,5.28
2022-09-22T19:02:50.321Z,5.63
2022-09-22T19:05:18.908Z,6.10
2022-09-22T19:07:48.518Z,3.92
2022-09-22T19:10:22.211Z,4.32
2022-09-22T19:12:50.775Z,5.35
2022-09-22T19:15:19.945Z,5.82
2022-09-22T19:17:49.874Z,5.72
2022-09-22T19:20:20.967Z,5.40
2022-09-22T19:22:52.432Z,5.07
2022-09-22T19:25:21.619Z,5.90
2022-09-22T19:27:50.359Z,5.57
2022-09-22T19:30:22.875Z,5.80
2022-09-22T19:32:52.714Z,5.90
2022-09-22T19:35:20.717Z,6.03
2022-09-22T19:37:51.993Z,5.88
2022-09-22T19:40:20.827Z,4.82
2022-09-22T19:42:49.863Z,4.43
2022-09-22T19:45:18.601Z,4.57
2022-09-22T19:47:48.139Z,4.00
2022-09-22T19:50:16.541Z,4.70
2022-09-22T19:52:44.613Z,4.50
2022-09-22T19:55:16.071Z,4.38
2022-09-22T19:57:48.837Z,4.60
2022-09-22T20:00:25.630Z,5.03
2022-09-22T20:02:58.620Z,5.43
2022-09-22T20:05:29.362Z,5.00
2022-09-22T20:10:26.592Z,6.80
2022-09-22T20:12:55.283Z,6.95
2022-09-22T20:15:23.331Z,6.90
2022-09-22T20:17:51.399Z,6.68
2022-09-22T20:20:21.708Z,6.10
2022-09-22T20:25:24.937Z,6.10
2022-09-22T20:27:56.194Z,4.95
2022-09-22T20:30:24.407Z,5.47
2022-09-22T20:32:52.620Z,5.53
2022-09-22T20:35:22.111Z,4.70
2022-09-22T20:37:51.704Z,4.63
2022-09-22T20:40:22.073Z,4.30
2022-09-22T20:42:51.385Z,4.68
2022-09-22T20:45:23.021Z,5.22
2022-09-22T20:47:51.131Z,4.88
2022-09-22T20:50:19.650Z,4.28
2022-09-22T20:52:47.896Z,4.45
2022-09-22T20:55:16.258Z,5.35
2022-09-22T20:57:44.272Z,4.47
2022-09-22T21:00:15.384Z,4.40
2022-09-22T21:02:45.107Z,4.82
2022-09-22T21:05:13.253Z,4.95
2022-09-22T21:07:41.674Z,5.13
2022-09-22T21:10:28.106Z,5.38
2022-09-22T21:12:56.368Z,5.00
2022-09-22T21:15:24.583Z,5.32
2022-09-22T21:17:54.118Z,5.35
2022-09-22T21:20:22.632Z,4.70
2022-09-22T21:22:51.196Z,4.50
2022-09-22T21:25:20.180Z,4.45
2022-09-22T21:27:48.321Z,3.90
2022-09-22T21:30:16.561Z,4.00
2022-09-22T21:32:44.707Z,4.35
2022-09-22T21:35:16.745Z,4.30
2022-09-22T21:37:45.140Z,3.88
2022-09-22T21:40:13.882Z,4.80
2022-09-22T21:42:42.081Z,4.18
2022-09-22T21:45:10.933Z,6.00
2022-09-22T21:47:38.870Z,6.22
2022-09-22T21:50:07.901Z,5.32
2022-09-22T21:52:38.489Z,6.20
2022-09-22T21:55:07.732Z,5.38
2022-09-22T21:57:35.737Z,6.10
2022-09-22T22:00:05.106Z,5.70
2022-09-22T22:02:53.771Z,5.55
2022-09-22T22:05:21.875Z,5.50
2022-09-22T22:07:51.115Z,4.97
2022-09-22T22:10:19.240Z,5.63
2022-09-22T22:12:47.199Z,4.97
2022-09-22T22:15:15.571Z,4.95
2022-09-22T22:17:43.460Z,5.38
2022-09-22T22:20:11.443Z,5.30
2022-09-22T22:22:39.508Z,7.28
2022-09-22T22:25:13.952Z,6.15
2022-09-22T22:27:45.076Z,6.97
2022-09-22T22:30:14.401Z,6.22
2022-09-22T22:32:42.407Z,5.13
2022-09-22T22:35:11.758Z,4.50
2022-09-22T22:37:40.129Z,5.05
2022-09-22T22:40:10.729Z,4.40
2022-09-22T22:42:38.680Z,3.80
2022-09-22T22:45:07.281Z,3.72
2022-09-22T22:47:35.202Z,3.22
2022-09-22T22:50:03.223Z,3.45
2022-09-22T22:52:31.358Z,3.22
2022-09-22T22:54:59.347Z,3.28
2022-09-22T22:57:29.095Z,3.33
2022-09-22T22:59:57.336Z,3.20
2022-09-22T23:02:25.683Z,3.10
2022-09-22T23:04:54.436Z,3.20
2022-09-22T23:07:22.617Z,2.97
2022-09-22T23:10:06.291Z,3.42
2022-09-22T23:12:37.155Z,3.33
2022-09-22T23:15:05.910Z,3.78
2022-09-22T23:17:34.392Z,3.05
2022-09-22T23:20:03.281Z,3.45
2022-09-22T23:22:31.675Z,3.78
2022-09-22T23:25:00.189Z,3.55
2022-09-22T23:27:29.266Z,4.10
2022-09-22T23:29:59.037Z,3.83
2022-09-22T23:32:27.050Z,4.30
2022-09-22T23:34:55.298Z,4.65
2022-09-22T23:37:24.747Z,5.60
2022-09-22T23:39:53.278Z,7.00
2022-09-22T23:42:21.166Z,5.78
2022-09-22T23:44:49.240Z,6.07
2022-09-22T23:47:18.852Z,6.65
2022-09-22T23:49:46.914Z,5.35
2022-09-22T23:52:14.813Z,5.32
2022-09-22T23:54:42.746Z,5.00
2022-09-22T23:57:10.713Z,5.32
2022-09-22T23:59:38.597Z,4.82
